Time;durP1;ratioP1;P1;durP2;ratioP2;P2;SDS_P1;SDS_P2;PMS_P1;PMS_P2;Temp;Humidity;BMP_temperature;BMP_pressure;BME280_temperature;BME280_humidity;BME280_pressure;Samples;Min_cycle;Max_cycle;Signal;HPM_P1;HPM_P2
2022/11/17 00:00:08;;;;;;;;;;;;;;;14.96;76.71;98734.19;5075894;28;988;-64
2022/11/17 00:02:34;;;;;;;;;;;;;;;14.96;76.11;98725.94;5075949;28;835;-63
2022/11/17 00:04:59;;;;;;;;;;;;;;;14.97;76.12;98726.72;5075828;28;797;-64
2022/11/17 00:07:24;;;;;;;;;;;;;;;14.97;76.59;98729.47;5075386;28;1890;-65
2022/11/17 00:09:49;;;;;;;;;;;;;;;14.97;75.64;98735.00;5075735;28;979;-64
2022/11/17 00:14:59;;;;;;;;;;;;;;;14.96;76.25;98722.38;5075717;28;655;-63
2022/11/17 00:17:24;;;;;;;;;;;;;;;14.96;76.54;98719.63;5075444;28;1214;-64
2022/11/17 00:22:33;;;;;;;;;;;;;;;14.96;76.66;98712.16;5075867;28;721;-64
2022/11/17 00:24:58;;;;;;;;;;;;;;;14.95;76.76;98721.56;5075457;28;891;-63
2022/11/17 00:27:23;;;;;;;;;;;;;;;14.96;75.85;98711.34;5075190;28;1957;-64
2022/11/17 00:29:48;;;;;;;;;;;;;;;14.97;76.34;98718.47;5075365;28;927;-63
2022/11/17 00:34:59;;;;;;;;;;;;;;;14.96;75.91;98709.41;5075628;28;697;-64
2022/11/17 00:37:25;;;;;;;;;;;;;;;14.95;76.37;98694.00;5074782;28;1213;-63
2022/11/17 00:39:50;;;;;;;;;;;;;;;14.97;76.41;98694.44;5075181;28;1032;-64
2022/11/17 00:42:15;;;;;;;;;;;;;;;14.95;76.76;98695.97;5075258;28;800;-64
2022/11/17 00:44:41;;;;;;;;;;;;;;;14.95;76.49;98691.25;5075228;28;872;-65
2022/11/17 00:47:06;;;;;;;;;;;;;;;14.94;76.58;98686.91;5074672;28;2344;-64
2022/11/17 00:49:31;;;;;;;;;;;;;;;14.95;76.51;98679.44;5075099;28;781;-64
2022/11/17 00:51:56;;;;;;;;;;;;;;;14.95;76.09;98676.69;5074981;28;932;-64
2022/11/17 00:54:22;;;;;;;;;;;;;;;14.95;75.98;98666.47;5074974;28;817;-64
2022/11/17 00:56:47;;;;;;;;;;;;;;;14.96;76.38;98662.56;5074636;28;1373;-65
2022/11/17 00:59:13;;;;;;;;;;;;;;;14.96;76.28;98656.25;5075034;28;836;-64
2022/11/17 01:01:38;;;;;;;;;;;;;;;14.94;75.72;98653.03;5074965;28;825;-64
2022/11/17 01:04:04;;;;;;;;;;;;;;;14.95;76.38;98651.88;5074761;28;883;-64
2022/11/17 01:06:36;;;;;;;;;;;;;;;14.95;75.98;98649.13;5074317;28;1203;-63
2022/11/17 01:09:07;;;;;;;;;;;;;;;14.94;75.81;98650.28;5074550;28;1894;-64
2022/11/17 01:11:32;;;;;;;;;;;;;;;14.94;75.90;98642.03;5074552;28;991;-65
2022/11/17 01:13:58;;;;;;;;;;;;;;;14.94;76.66;98647.53;5074867;28;778;-64
2022/11/17 01:16:24;;;;;;;;;;;;;;;14.93;75.83;98643.97;5074323;28;1276;-64
2022/11/17 01:18:50;;;;;;;;;;;;;;;14.93;76.02;98632.16;5074455;28;1007;-64
2022/11/17 01:21:16;;;;;;;;;;;;;;;14.93;76.38;98632.16;5074430;28;789;-64
2022/11/17 01:23:42;;;;;;;;;;;;;;;14.95;75.75;98622.38;5074278;28;2086;-64
2022/11/17 01:26:12;;;;;;;;;;;;;;;14.93;75.95;98624.69;5073882;28;1622;-65
2022/11/17 01:28:37;;;;;;;;;;;;;;;14.92;75.88;98612.06;5074164;28;1964;-63
2022/11/17 01:31:13;;;;;;;;;;;;;;;14.93;75.92;98608.16;5074208;28;904;-65
2022/11/17 01:33:38;;;;;;;;;;;;;;;14.93;76.34;98599.09;5074139;28;793;-64
2022/11/17 01:36:05;;;;;;;;;;;;;;;14.93;75.88;98599.09;5073566;28;1224;-64
2022/11/17 01:38:30;;;;;;;;;;;;;;;14.93;76.16;98588.88;5073938;28;1001;-65
2022/11/17 01:41:00;;;;;;;;;;;;;;;14.93;75.75;98590.84;5074036;28;813;-64
2022/11/17 01:43:39;;;;;;;;;;;;;;;14.93;75.88;98586.13;5074088;28;868;-65
2022/11/17 01:46:07;;;;;;;;;;;;;;;14.93;76.37;98577.84;5073562;28;1200;-64
2022/11/17 01:48:32;;;;;;;;;;;;;;;14.94;76.30;98570.41;5073737;28;1893;-65
2022/11/17 01:50:58;;;;;;;;;;;;;;;14.92;75.75;98556.97;5073873;28;904;-63
2022/11/17 01:53:25;;;;;;;;;;;;;;;14.93;75.78;98552.25;5073692;28;873;-64
2022/11/17 01:55:53;;;;;;;;;;;;;;;14.91;75.71;98538.84;5073315;28;1172;-64
2022/11/17 01:58:22;;;;;;;;;;;;;;;14.92;75.98;98545.16;5073747;28;856;-65
2022/11/17 02:00:47;;;;;;;;;;;;;;;14.92;76.09;98529.41;5073106;28;1051;-63
2022/11/17 02:03:12;;;;;;;;;;;;;;;14.92;76.62;98520.34;5073584;28;971;-64
2022/11/17 02:05:59;;;;;;;;;;;;;;;14.93;76.46;98527.47;5080618;28;1272;-64
2022/11/17 02:08:26;;;;;;;;;;;;;;;14.91;75.97;98525.06;5093825;28;1902;-64
2022/11/17 02:10:52;;;;;;;;;;;;;;;14.91;76.20;98521.50;5093619;28;831;-64
2022/11/17 02:13:18;;;;;;;;;;;;;;;14.90;76.28;98517.97;5093702;28;825;-63
2022/11/17 02:15:44;;;;;;;;;;;;;;;14.92;75.87;98523.13;5093582;28;796;-64
2022/11/17 02:18:09;;;;;;;;;;;;;;;14.91;76.07;98522.31;5093630;28;1262;-64
2022/11/17 02:20:40;;;;;;;;;;;;;;;14.91;76.30;98507.72;5093531;28;888;-64
2022/11/17 02:23:24;;;;;;;;;;;;;;;14.92;75.96;98510.13;5093633;28;991;-64
2022/11/17 02:26:07;;;;;;;;;;;;;;;14.90;76.37;98506.13;5093131;28;1200;-64
2022/11/17 02:28:51;;;;;;;;;;;;;;;14.92;75.79;98492.81;5093507;28;1909;-64
2022/11/17 02:31:21;;;;;;;;;;;;;;;14.91;75.74;98496.72;5093623;28;872;-64
2022/11/17 02:33:52;;;;;;;;;;;;;;;14.90;76.32;98490.41;5093543;28;836;-64
2022/11/17 02:36:21;;;;;;;;;;;;;;;14.91;76.09;98499.47;5092843;28;1217;-64
2022/11/17 02:38:46;;;;;;;;;;;;;;;14.91;76.59;98492.00;5093417;28;959;-64
2022/11/17 02:41:17;;;;;;;;;;;;;;;14.92;75.66;98487.31;5093186;28;885;-65
2022/11/17 02:44:05;;;;;;;;;;;;;;;14.91;76.39;98485.69;5093476;28;779;-64
2022/11/17 02:46:50;;;;;;;;;;;;;;;14.91;75.70;98481.00;5092880;28;1297;-64
2022/11/17 02:49:19;;;;;;;;;;;;;;;14.91;76.41;98478.22;5078839;28;1574;-64
2022/11/17 02:52:04;;;;;;;;;;;;;;;14.91;76.06;98481.00;5093363;28;875;-65
2022/11/17 02:54:30;;;;;;;;;;;;;;;14.91;75.76;98471.94;5093154;28;1003;-64
2022/11/17 02:56:55;;;;;;;;;;;;;;;14.90;76.10;98479.38;5092778;28;1196;-64
2022/11/17 02:59:24;;;;;;;;;;;;;;;14.90;75.75;98473.06;5093067;28;1011;-64
2022/11/17 03:01:58;;;;;;;;;;;;;;;14.91;76.07;98466.41;5093191;28;868;-64
2022/11/17 03:04:34;;;;;;;;;;;;;;;14.90;76.21;98464.81;5093109;28;829;-65
2022/11/17 03:07:06;;;;;;;;;;;;;;;14.89;75.46;98464.00;5092703;28;1894;-65
2022/11/17 03:09:31;;;;;;;;;;;;;;;14.91;75.66;98460.91;5091732;28;863;-64
2022/11/17 03:12:07;;;;;;;;;;;;;;;14.90;75.82;98462.06;5093801;28;797;-64
2022/11/17 03:14:46;;;;;;;;;;;;;;;14.91;76.10;98460.91;5097132;28;983;-63
2022/11/17 03:17:11;;;;;;;;;;;;;;;14.90;75.57;98448.28;5096769;28;1263;-65
2022/11/17 03:19:49;;;;;;;;;;;;;;;14.92;75.65;98448.72;5096970;28;1027;-63
2022/11/17 03:22:22;;;;;;;;;;;;;;;14.91;76.03;98444.38;5096944;28;844;-65
2022/11/17 03:24:56;;;;;;;;;;;;;;;14.89;76.23;98433.72;5097128;28;1405;-64
2022/11/17 03:27:26;;;;;;;;;;;;;;;14.89;76.32;98430.16;5096588;28;1945;-65
2022/11/17 03:29:53;;;;;;;;;;;;;;;14.88;75.95;98423.88;5096653;28;1921;-64
2022/11/17 03:32:20;;;;;;;;;;;;;;;14.90;76.27;98420.75;5096752;28;1417;-63
2022/11/17 03:34:49;;;;;;;;;;;;;;;14.89;76.14;98425.44;5096789;28;816;-64
2022/11/17 03:37:15;;;;;;;;;;;;;;;14.89;76.19;98419.94;5096235;28;1271;-64
2022/11/17 03:39:42;;;;;;;;;;;;;;;14.89;76.08;98425.44;5096606;28;998;-64
2022/11/17 03:42:15;;;;;;;;;;;;;;;14.90;75.77;98431.75;5096554;28;816;-64
2022/11/17 03:44:42;;;;;;;;;;;;;;;14.89;75.77;98424.66;5096647;28;1049;-65
2022/11/17 03:47:09;;;;;;;;;;;;;;;14.89;75.99;98428.19;5096159;28;1897;-64
2022/11/17 03:49:40;;;;;;;;;;;;;;;14.87;76.05;98421.47;5096539;28;1019;-64
2022/11/17 03:52:05;;;;;;;;;;;;;;;14.87;75.63;98427.00;5096383;28;720;-64
2022/11/17 03:54:31;;;;;;;;;;;;;;;14.88;75.98;98417.56;5096308;28;977;-64
2022/11/17 03:57:05;;;;;;;;;;;;;;;14.87;75.71;98413.22;5095961;28;1276;-63
2022/11/17 03:59:35;;;;;;;;;;;;;;;14.89;75.78;98408.13;5096528;28;858;-65
2022/11/17 04:02:00;;;;;;;;;;;;;;;14.88;76.02;98399.09;5096275;28;909;-64
2022/11/17 04:05:04;;;;;;;;;;;;;;;14.89;76.09;98402.63;5096128;28;880;-64
2022/11/17 04:07:11;;;;;;;;;;;;;;;14.88;75.68;98390.03;5086574;28;1885;-64
2022/11/17 04:09:36;;;;;;;;;;;;;;;14.89;75.34;98400.66;5075707;28;862;-65
2022/11/17 04:17:29;;;;;;;;;;;;;;;14.86;75.36;98390.38;5075460;28;1204;-65
2022/11/17 04:19:54;;;;;;;;;;;;;;;14.88;75.59;98382.56;5075563;28;947;-64
2022/11/17 04:22:19;;;;;;;;;;;;;;;14.87;75.73;98380.97;5075459;28;1160;-64
2022/11/17 04:24:44;;;;;;;;;;;;;;;14.87;76.08;98377.41;5075302;28;781;-64
2022/11/17 04:29:53;;;;;;;;;;;;;;;14.87;75.51;98371.91;5075526;28;778;-64
2022/11/17 04:32:19;;;;;;;;;;;;;;;14.88;76.04;98365.22;5075280;28;865;-64
2022/11/17 04:34:44;;;;;;;;;;;;;;;14.88;75.92;98359.72;5075376;28;884;-64
2022/11/17 04:37:16;;;;;;;;;;;;;;;14.87;75.95;98355.38;5075239;28;1302;-64
2022/11/17 04:39:41;;;;;;;;;;;;;;;14.87;75.90;98352.63;5075365;28;916;-64
2022/11/17 04:42:06;;;;;;;;;;;;;;;14.87;76.06;98349.88;5075184;28;1039;-64
2022/11/17 04:44:31;;;;;;;;;;;;;;;14.87;75.91;98360.88;5075136;28;1003;-64
2022/11/17 04:46:56;;;;;;;;;;;;;;;14.86;75.90;98364.78;5074692;28;1893;-64
2022/11/17 04:49:22;;;;;;;;;;;;;;;14.86;76.01;98362.84;5074963;28;1030;-64
2022/11/17 04:51:48;;;;;;;;;;;;;;;14.85;75.34;98361.25;5074975;28;952;-64
2022/11/17 04:54:15;;;;;;;;;;;;;;;14.86;75.54;98362.03;5074942;28;841;-63
2022/11/17 04:56:40;;;;;;;;;;;;;;;14.86;76.00;98359.28;5074725;28;1203;-65
2022/11/17 04:59:06;;;;;;;;;;;;;;;14.87;76.03;98355.38;5074843;28;995;-65
2022/11/17 05:01:31;;;;;;;;;;;;;;;14.86;75.61;98357.31;5074810;28;987;-64
2022/11/17 05:04:01;;;;;;;;;;;;;;;14.87;76.30;98358.13;5074754;28;912;-64
2022/11/17 05:06:27;;;;;;;;;;;;;;;14.86;76.03;98362.03;5074413;28;1189;-64
2022/11/17 05:08:54;;;;;;;;;;;;;;;14.87;75.99;98358.13;5074714;28;1890;-64
2022/11/17 05:14:03;;;;;;;;;;;;;;;14.86;75.64;98343.56;5074855;28;837;-64
2022/11/17 05:19:15;;;;;;;;;;;;;;;14.85;75.86;98332.91;5074616;28;734;-64
2022/11/17 05:21:40;;;;;;;;;;;;;;;14.85;76.26;98330.94;5074349;28;849;-64
2022/11/17 05:24:05;;;;;;;;;;;;;;;14.86;76.15;98326.22;5074372;28;1027;-64
2022/11/17 05:26:32;;;;;;;;;;;;;;;14.87;75.41;98325.06;5073927;28;1611;-64
2022/11/17 05:28:58;;;;;;;;;;;;;;;14.86;75.35;98334.50;5074402;28;1893;-64
2022/11/17 05:31:24;;;;;;;;;;;;;;;14.85;76.28;98330.94;5074300;28;813;-64
2022/11/17 05:33:49;;;;;;;;;;;;;;;14.86;76.36;98326.22;5074267;28;932;-64
2022/11/17 05:36:14;;;;;;;;;;;;;;;14.86;76.14;98332.53;5073035;28;1203;-65
2022/11/17 05:38:39;;;;;;;;;;;;;;;14.86;76.10;98331.75;5074137;28;1031;-65
2022/11/17 05:41:04;;;;;;;;;;;;;;;14.87;75.78;98333.34;5074040;28;999;-65
2022/11/17 05:43:30;;;;;;;;;;;;;;;14.87;75.88;98333.34;5074081;28;972;-64
2022/11/17 05:45:55;;;;;;;;;;;;;;;14.87;75.20;98338.84;5073765;28;1296;-64
2022/11/17 05:48:20;;;;;;;;;;;;;;;14.86;76.15;98340.81;5073834;28;1894;-64
2022/11/17 05:50:45;;;;;;;;;;;;;;;14.85;75.61;98319.91;5073945;28;805;-65
2022/11/17 05:53:10;;;;;;;;;;;;;;;14.86;76.10;98324.28;5073912;28;881;-65
2022/11/17 05:55:35;;;;;;;;;;;;;;;14.86;75.30;98332.53;5073776;28;988;-64
2022/11/17 05:58:03;;;;;;;;;;;;;;;14.86;76.39;98326.22;5073489;28;1175;-64
2022/11/17 06:00:29;;;;;;;;;;;;;;;14.85;76.40;98319.91;5073759;28;1042;-65
2022/11/17 06:02:57;;;;;;;;;;;;;;;14.86;76.30;98310.50;5073861;28;950;-63
2022/11/17 06:05:22;;;;;;;;;;;;;;;14.86;76.38;98309.69;5073690;28;837;-65
2022/11/17 06:07:48;;;;;;;;;;;;;;;14.88;76.64;98313.69;5073330;28;1894;-65
2022/11/17 06:10:13;;;;;;;;;;;;;;;14.88;75.94;98299.13;5073479;28;834;-64
2022/11/17 06:12:39;;;;;;;;;;;;;;;14.89;76.26;98303.44;5073605;28;1047;-64
2022/11/17 06:15:04;;;;;;;;;;;;;;;14.88;76.58;98299.13;5073579;28;833;-64
2022/11/17 06:17:33;;;;;;;;;;;;;;;14.88;75.93;98296.38;5073218;28;1282;-65
2022/11/17 06:20:07;;;;;;;;;;;;;;;14.88;76.46;98288.91;5073460;28;1038;-64
2022/11/17 06:22:32;;;;;;;;;;;;;;;14.88;76.52;98288.13;5073462;28;1000;-65
2022/11/17 06:24:58;;;;;;;;;;;;;;;14.88;76.28;98299.13;5073434;28;971;-65
2022/11/17 06:27:24;;;;;;;;;;;;;;;14.87;76.06;98284.56;5072963;28;1894;-64
2022/11/17 06:29:50;;;;;;;;;;;;;;;14.87;76.06;98279.06;5073454;28;861;-65
2022/11/17 06:32:16;;;;;;;;;;;;;;;14.87;76.63;98279.06;5073308;28;991;-65
2022/11/17 06:34:43;;;;;;;;;;;;;;;14.86;76.62;98271.16;5073276;28;979;-65
2022/11/17 06:37:10;;;;;;;;;;;;;;;14.86;76.10;98269.19;5072825;28;1192;-65
2022/11/17 06:39:35;;;;;;;;;;;;;;;14.85;76.27;98251.06;5073166;28;840;-65
2022/11/17 06:42:00;;;;;;;;;;;;;;;14.87;76.77;98256.22;5073226;28;889;-64
2022/11/17 06:44:25;;;;;;;;;;;;;;;14.87;75.78;98251.50;5073203;28;971;-65
2022/11/17 06:46:50;;;;;;;;;;;;;;;14.86;76.07;98252.66;5073084;28;1294;-65
2022/11/17 06:49:15;;;;;;;;;;;;;;;14.86;76.62;98255.41;5073033;28;1956;-64
2022/11/17 06:51:40;;;;;;;;;;;;;;;14.86;75.96;98249.91;5073103;28;889;-65
2022/11/17 06:54:08;;;;;;;;;;;;;;;14.07;75.88;98122.81;5073027;28;662;-64
2022/11/17 06:56:33;;;;;;;;;;;;;;;14.87;76.53;98261.72;5072710;28;1204;-65
2022/11/17 06:58:58;;;;;;;;;;;;;;;14.86;76.41;98255.41;5073052;28;821;-65
2022/11/17 07:01:24;;;;;;;;;;;;;;;14.87;76.00;98251.50;5072984;28;1038;-64
2022/11/17 07:03:49;;;;;;;;;;;;;;;14.87;76.54;98250.72;5072832;28;872;-64
2022/11/17 07:06:15;;;;;;;;;;;;;;;14.85;76.42;98269.53;5072875;28;1289;-65
2022/11/17 07:08:40;;;;;;;;;;;;;;;14.86;76.51;98260.13;5072768;28;1948;-65
2022/11/17 07:11:07;;;;;;;;;;;;;;;14.86;75.70;98260.13;5073077;28;1075;-66
2022/11/17 07:13:32;;;;;;;;;;;;;;;14.86;76.80;98266.44;5072626;28;2545;-65
2022/11/17 07:16:16;;;;;;;;;;;;;;;14.86;75.80;98268.38;5072635;28;1231;-64
2022/11/17 07:18:41;;;;;;;;;;;;;;;14.87;76.41;98270.78;5072823;28;872;-65
2022/11/17 07:21:09;;;;;;;;;;;;;;;14.88;76.19;98263.31;5072762;28;951;-64
2022/11/17 07:23:34;;;;;;;;;;;;;;;14.88;76.55;98257.81;5072851;28;817;-65
2022/11/17 07:26:00;;;;;;;;;;;;;;;14.87;76.03;98261.72;5072484;28;1212;-66
2022/11/17 07:28:25;;;;;;;;;;;;;;;14.87;76.74;98258.97;5072654;28;1890;-65
2022/11/17 07:30:51;;;;;;;;;;;;;;;14.87;76.68;98257.00;5072625;28;804;-65
2022/11/17 07:33:16;;;;;;;;;;;;;;;14.87;76.56;98264.47;5072636;28;932;-64
2022/11/17 07:35:41;;;;;;;;;;;;;;;14.86;76.44;98260.94;5072549;28;786;-65
2022/11/17 07:38:07;;;;;;;;;;;;;;;14.86;76.78;98274.69;5072317;28;1211;-64
2022/11/17 07:40:32;;;;;;;;;;;;;;;14.86;76.68;98265.63;5072745;28;797;-65
2022/11/17 07:42:57;;;;;;;;;;;;;;;14.87;76.51;98268.03;5072681;28;908;-64
2022/11/17 07:45:23;;;;;;;;;;;;;;;14.88;76.05;98268.84;5072551;28;904;-64
2022/11/17 07:47:52;;;;;;;;;;;;;;;14.88;76.14;98250.34;5072135;28;1890;-64
2022/11/17 07:50:17;;;;;;;;;;;;;;;14.88;76.68;98244.84;5072480;28;860;-65
2022/11/17 07:52:42;;;;;;;;;;;;;;;14.88;75.92;98244.03;5072689;28;987;-65
2022/11/17 07:55:08;;;;;;;;;;;;;;;14.88;76.78;98241.28;5072439;28;801;-64
2022/11/17 07:57:33;;;;;;;;;;;;;;;14.88;76.10;98235.78;5072323;28;1205;-65
2022/11/17 07:59:58;;;;;;;;;;;;;;;14.88;76.63;98227.50;5076149;28;899;-65
2022/11/17 08:02:23;;;;;;;;;;;;;;;14.87;76.10;98223.16;5076012;28;1066;-65
2022/11/17 08:04:48;;;;;;;;;;;;;;;14.87;76.44;98207.44;5075898;28;830;-64
2022/11/17 08:07:13;;;;;;;;;;;;;;;14.88;75.88;98211.78;5075840;28;1956;-65
2022/11/17 08:09:39;;;;;;;;;;;;;;;14.88;76.49;98192.50;5075921;28;980;-65
2022/11/17 08:12:04;;;;;;;;;;;;;;;14.87;76.77;98193.66;5075993;28;813;-65
2022/11/17 08:14:29;;;;;;;;;;;;;;;14.87;76.55;98201.94;5075771;28;925;-64
2022/11/17 08:16:55;;;;;;;;;;;;;;;14.87;76.25;98192.88;5075377;28;1220;-65
2022/11/17 08:19:20;;;;;;;;;;;;;;;14.86;76.60;98183.81;5075608;28;1019;-65
2022/11/17 08:21:45;;;;;;;;;;;;;;;14.87;76.44;98179.09;5075673;28;1059;-64
2022/11/17 08:24:11;;;;;;;;;;;;;;;14.87;76.22;98184.59;5075653;28;872;-65
2022/11/17 08:26:36;;;;;;;;;;;;;;;14.87;76.48;98179.09;5075458;28;1282;-64
2022/11/17 08:29:01;;;;;;;;;;;;;;;14.87;76.59;98187.34;5075592;28;1898;-64
2022/11/17 08:31:26;;;;;;;;;;;;;;;14.89;76.59;98193.28;5075389;28;1026;-65
2022/11/17 08:33:51;;;;;;;;;;;;;;;14.88;76.68;98191.72;5075918;28;833;-64
2022/11/17 08:36:16;;;;;;;;;;;;;;;14.87;76.35;98188.16;5074925;28;1205;-64
2022/11/17 08:38:42;;;;;;;;;;;;;;;14.87;76.09;98184.59;5075513;28;845;-66
2022/11/17 08:41:08;;;;;;;;;;;;;;;14.87;76.48;98199.16;5075283;28;933;-64
2022/11/17 08:43:34;;;;;;;;;;;;;;;14.87;76.48;98206.63;5075250;28;979;-65
2022/11/17 08:46:01;;;;;;;;;;;;;;;14.87;76.08;98212.94;5074903;28;1273;-65
2022/11/17 08:48:27;;;;;;;;;;;;;;;14.87;75.98;98210.19;5074985;28;1965;-65
2022/11/17 08:50:52;;;;;;;;;;;;;;;14.87;76.56;98212.94;5075325;28;864;-65
2022/11/17 08:53:18;;;;;;;;;;;;;;;14.87;76.24;98218.44;5075178;28;857;-65
2022/11/17 08:55:44;;;;;;;;;;;;;;;14.87;76.81;98220.41;5074969;28;833;-64
2022/11/17 08:58:11;;;;;;;;;;;;;;;14.86;76.05;98225.13;5075036;28;1291;-65
2022/11/17 09:00:36;;;;;;;;;;;;;;;14.87;76.48;98228.66;5074814;28;869;-64
2022/11/17 09:03:08;;;;;;;;;;;;;;;14.86;76.79;98243.59;5074888;28;931;-64
2022/11/17 09:05:41;;;;;;;;;;;;;;;14.87;76.44;98237.72;5075023;28;886;-64
2022/11/17 09:08:07;;;;;;;;;;;;;;;14.87;76.01;98242.44;5074385;28;1898;-64
2022/11/17 09:10:32;;;;;;;;;;;;;;;14.87;76.50;98236.94;5073663;28;861;-65
2022/11/17 09:12:58;;;;;;;;;;;;;;;14.87;75.86;98237.72;5074658;28;885;-64
2022/11/17 09:15:23;;;;;;;;;;;;;;;14.86;76.70;98235.34;5074542;28;908;-64
2022/11/17 09:17:48;;;;;;;;;;;;;;;14.86;76.09;98233.38;5074131;28;1224;-64
2022/11/17 09:20:14;;;;;;;;;;;;;;;14.87;76.44;98234.97;5074520;28;979;-64
2022/11/17 09:22:39;;;;;;;;;;;;;;;14.88;75.76;98235.78;5074510;28;869;-64
2022/11/17 09:25:05;;;;;;;;;;;;;;;14.88;76.74;98228.31;5074422;28;901;-64
2022/11/17 09:27:30;;;;;;;;;;;;;;;14.87;76.80;98239.69;5073982;28;1962;-65
2022/11/17 09:29:55;;;;;;;;;;;;;;;14.86;76.54;98232.59;5074271;28;833;-65
2022/11/17 09:32:20;;;;;;;;;;;;;;;14.87;76.03;98229.47;5074306;28;972;-64
2022/11/17 09:34:45;;;;;;;;;;;;;;;14.87;76.39;98223.16;5073789;28;943;-65
2022/11/17 09:37:10;;;;;;;;;;;;;;;14.86;76.57;98222.38;5073568;28;1219;-64
2022/11/17 09:39:36;;;;;;;;;;;;;;;14.88;76.09;98228.31;5074252;28;863;-64
2022/11/17 09:42:01;;;;;;;;;;;;;;;14.88;76.38;98227.50;5074181;28;1018;-64
2022/11/17 09:44:29;;;;;;;;;;;;;;;14.88;76.61;98225.56;5074103;28;884;-64
2022/11/17 09:47:18;;;;;;;;;;;;;;;14.88;75.97;98219.25;5073548;28;1202;-64
2022/11/17 09:49:53;;;;;;;;;;;;;;;14.87;76.49;98223.97;5073950;28;872;-64
2022/11/17 09:52:24;;;;;;;;;;;;;;;14.87;76.56;98217.66;5074035;28;948;-64
2022/11/17 09:54:49;;;;;;;;;;;;;;;14.88;76.20;98220.06;5073767;28;813;-64
2022/11/17 09:57:20;;;;;;;;;;;;;;;14.87;75.87;98218.44;5073433;28;1275;-65
2022/11/17 09:59:48;;;;;;;;;;;;;;;14.86;76.75;98222.38;5073694;28;1286;-64
2022/11/17 10:02:13;;;;;;;;;;;;;;;14.87;76.22;98217.66;5073727;28;1006;-64
2022/11/17 10:04:38;;;;;;;;;;;;;;;14.88;76.40;98208.22;5073697;28;967;-64
2022/11/17 10:07:05;;;;;;;;;;;;;;;14.87;76.58;98223.16;5073316;28;1959;-64
2022/11/17 10:09:30;;;;;;;;;;;;;;;14.87;75.84;98223.16;5073542;28;904;-64
2022/11/17 10:12:01;;;;;;;;;;;;;;;14.87;76.68;98218.44;5073611;28;853;-64
2022/11/17 10:14:27;;;;;;;;;;;;;;;14.88;75.94;98222.81;5073810;28;856;-65
2022/11/17 10:16:53;;;;;;;;;;;;;;;14.88;75.92;98219.25;5073161;28;1155;-65
2022/11/17 10:19:20;;;;;;;;;;;;;;;14.87;76.77;98214.91;5073571;28;956;-65
2022/11/17 10:21:47;;;;;;;;;;;;;;;14.87;76.47;98215.69;5073094;28;983;-65
2022/11/17 10:24:31;;;;;;;;;;;;;;;14.88;76.18;98214.53;5073433;28;987;-65
2022/11/17 10:26:56;;;;;;;;;;;;;;;14.87;76.41;98218.44;5072969;28;1809;-65
2022/11/17 10:29:22;;;;;;;;;;;;;;;14.87;76.26;98212.16;5073325;28;1897;-65
2022/11/17 10:31:47;;;;;;;;;;;;;;;14.88;76.67;98216.50;5073415;28;829;-65
2022/11/17 10:34:28;;;;;;;;;;;;;;;14.88;76.27;98199.97;5073312;28;825;-64
2022/11/17 10:36:54;;;;;;;;;;;;;;;14.88;76.68;98202.72;5072702;28;1286;-64
2022/11/17 10:39:30;;;;;;;;;;;;;;;14.87;76.38;98210.19;5073217;28;963;-65
2022/11/17 10:41:55;;;;;;;;;;;;;;;14.88;76.42;98211.00;5073123;28;1015;-65
2022/11/17 10:44:22;;;;;;;;;;;;;;;14.86;75.90;98200.31;5073269;28;806;-65
2022/11/17 10:46:58;;;;;;;;;;;;;;;14.88;76.10;98202.72;5072821;28;1199;-64
2022/11/17 10:49:25;;;;;;;;;;;;;;;14.87;76.90;98199.16;5072954;28;1930;-64
2022/11/17 10:52:02;;;;;;;;;;;;;;;14.87;75.96;98193.66;5073052;28;983;-64
2022/11/17 10:54:28;;;;;;;;;;;;;;;14.88;75.77;98186.19;5073213;28;821;-65
2022/11/17 10:56:54;;;;;;;;;;;;;;;14.87;76.40;98190.91;5072702;28;1216;-64
2022/11/17 10:59:30;;;;;;;;;;;;;;;14.87;76.56;98188.16;5073096;28;849;-65
2022/11/17 11:01:55;;;;;;;;;;;;;;;14.87;76.68;98182.66;5072986;28;956;-65
2022/11/17 11:04:35;;;;;;;;;;;;;;;14.88;75.70;98184.25;5072990;28;842;-64
2022/11/17 11:07:06;;;;;;;;;;;;;;;14.88;75.80;98181.50;5072597;28;1198;-65
2022/11/17 11:09:32;;;;;;;;;;;;;;;14.88;76.12;98178.72;5073005;28;840;-65
2022/11/17 11:11:58;;;;;;;;;;;;;;;14.88;76.59;98178.72;5072888;28;801;-64
2022/11/17 11:14:42;;;;;;;;;;;;;;;14.89;76.50;98174.78;5072824;28;858;-65
2022/11/17 11:17:11;;;;;;;;;;;;;;;14.87;76.06;98174.38;5072545;28;1287;-66
2022/11/17 11:19:37;;;;;;;;;;;;;;;14.88;76.64;98186.19;5072951;28;855;-64
2022/11/17 11:22:19;;;;;;;;;;;;;;;14.88;76.07;98188.97;5072840;28;936;-66
2022/11/17 11:24:47;;;;;;;;;;;;;;;14.89;75.95;98201.53;5072880;28;1003;-64
2022/11/17 11:27:32;;;;;;;;;;;;;;;14.88;75.88;98192.50;5072300;28;1967;-65
2022/11/17 11:30:01;;;;;;;;;;;;;;;14.88;76.03;98202.72;5061769;28;1849;-65
2022/11/17 11:32:29;;;;;;;;;;;;;;;14.87;76.32;98192.88;5064030;28;1845;-64
2022/11/17 11:35:09;;;;;;;;;;;;;;;14.88;76.72;98189.75;5054542;28;1043;-64
2022/11/17 11:37:38;;;;;;;;;;;;;;;14.88;76.55;98189.75;5054154;28;1228;-64
2022/11/17 11:40:09;;;;;;;;;;;;;;;14.88;76.68;98198.00;5054421;28;991;-65
2022/11/17 11:42:38;;;;;;;;;;;;;;;14.90;76.49;98189.38;5054384;28;867;-64
2022/11/17 11:45:06;;;;;;;;;;;;;;;14.88;76.67;98194.47;5054347;28;817;-64
2022/11/17 11:47:51;;;;;;;;;;;;;;;14.88;75.96;98192.50;5053864;28;1894;-64
2022/11/17 11:50:26;;;;;;;;;;;;;;;14.89;75.93;98188.56;5032751;28;1072;-64
2022/11/17 11:53:10;;;;;;;;;;;;;;;14.88;76.81;98192.50;5054023;28;2038;-64
2022/11/17 11:55:36;;;;;;;;;;;;;;;14.89;76.28;98198.78;5054131;28;1042;-63
2022/11/17 11:58:19;;;;;;;;;;;;;;;14.87;76.15;98192.88;5053694;28;1213;-64
2022/11/17 12:00:46;;;;;;;;;;;;;;;14.89;76.91;98194.06;5098375;22;1869;-65
2022/11/17 12:03:11;;;;;;;;;;;;;;;14.89;76.62;98193.28;5074000;28;1026;-64
2022/11/17 12:06:38;;;;;;;;;;;;;;;14.87;76.82;98199.16;5073885;28;863;-65
2022/11/17 12:08:51;;;;;;;;;;;;;;;14.89;76.88;98204.28;5073668;28;1971;-64
2022/11/17 12:14:04;;;;;;;;;;;;;;;14.89;76.85;98216.09;5073911;28;779;-64
2022/11/17 12:16:33;;;;;;;;;;;;;;;14.89;76.17;98224.38;5073741;28;862;-64
2022/11/17 12:18:59;;;;;;;;;;;;;;;14.89;76.62;98218.06;5073487;28;896;-65
2022/11/17 12:21:28;;;;;;;;;;;;;;;14.88;76.17;98219.25;5073284;28;1269;-65
2022/11/17 12:24:01;;;;;;;;;;;;;;;14.88;76.95;98227.50;5073515;28;1151;-65
2022/11/17 12:26:28;;;;;;;;;;;;;;;14.89;76.73;98229.88;5071337;28;868;-65
2022/11/17 12:29:12;;;;;;;;;;;;;;;14.89;76.83;98229.09;5073471;28;1959;-65
2022/11/17 12:31:41;;;;;;;;;;;;;;;14.89;76.30;98226.31;5073377;28;1287;-65
2022/11/17 12:34:06;;;;;;;;;;;;;;;14.89;76.22;98226.31;5073253;28;868;-65
2022/11/17 12:36:32;;;;;;;;;;;;;;;14.88;76.58;98233.81;5073151;28;832;-65
2022/11/17 12:39:02;;;;;;;;;;;;;;;14.90;76.18;98227.94;5073376;28;891;-65
2022/11/17 12:41:47;;;;;;;;;;;;;;;14.89;76.86;98231.84;5073170;28;1299;-65
2022/11/17 12:44:42;;;;;;;;;;;;;;;14.90;76.79;98236.19;5073024;28;868;-64
2022/11/17 12:47:15;;;;;;;;;;;;;;;14.88;76.92;98228.31;5072850;28;1917;-65
2022/11/17 12:49:47;;;;;;;;;;;;;;;14.88;76.82;98239.34;5073228;28;885;-65
2022/11/17 12:52:17;;;;;;;;;;;;;;;14.89;76.85;98240.09;5072818;28;1220;-65
2022/11/17 12:55:00;;;;;;;;;;;;;;;14.89;76.91;98249.16;5073226;28;916;-65
2022/11/17 12:57:29;;;;;;;;;;;;;;;14.90;76.30;98247.22;5073269;28;990;-65
2022/11/17 13:00:16;;;;;;;;;;;;;;;14.88;76.83;98241.28;5073206;28;999;-65
2022/11/17 13:02:52;;;;;;;;;;;;;;;14.89;76.83;98245.59;5072829;28;1250;-65
2022/11/17 13:05:19;;;;;;;;;;;;;;;14.89;76.91;98251.91;5073161;28;961;-65
2022/11/17 13:07:44;;;;;;;;;;;;;;;14.88;76.67;98250.34;5073800;28;1918;-65
2022/11/17 13:10:26;;;;;;;;;;;;;;;14.89;76.71;98245.59;5074778;28;929;-65
2022/11/17 13:13:07;;;;;;;;;;;;;;;14.88;76.31;98252.31;5074684;28;1341;-66
2022/11/17 13:15:32;;;;;;;;;;;;;;;14.87;76.41;98253.47;5074806;28;884;-65
2022/11/17 13:17:58;;;;;;;;;;;;;;;14.88;76.84;98263.31;5074419;28;980;-65
2022/11/17 13:20:25;;;;;;;;;;;;;;;14.88;76.48;98263.31;5074701;28;786;-65
2022/11/17 13:23:05;;;;;;;;;;;;;;;14.88;76.32;98268.84;5074549;28;1165;-65
2022/11/17 13:25:31;;;;;;;;;;;;;;;14.88;76.87;98260.56;5074384;28;895;-65
2022/11/17 13:27:56;;;;;;;;;;;;;;;14.87;77.06;98256.22;5074018;28;1906;-65
2022/11/17 13:30:26;;;;;;;;;;;;;;;14.87;76.81;98250.72;5074326;28;979;-65
2022/11/17 13:32:52;;;;;;;;;;;;;;;14.86;76.17;98255.41;5074330;28;1132;-65